Time;durP1;ratioP1;P1;durP2;ratioP2;P2;SDS_P1;SDS_P2;PMS_P1;PMS_P2;Temp;Humidity;BMP_temperature;BMP_pressure;BME280_temperature;BME280_humidity;BME280_pressure;Samples;Min_cycle;Max_cycle;Signal;HPM_P1;HPM_P2
2022/02/08 00:02:26;;;;;;;13.80;3.33;;;;;;;4.82;61.09;100657.25;4947734;28;97279;-88
2022/02/08 00:04:51;;;;;;;14.47;4.00;;;;;;;4.63;60.96;100644.34;4917110;28;96923;-88
2022/02/08 00:07:17;;;;;;;19.97;3.77;;;;;;;4.84;61.28;100671.97;4931841;28;98504;-88
2022/02/08 00:09:42;;;;;;;12.87;2.60;;;;;;;4.86;61.12;100677.16;4916302;28;101416;-87
2022/02/08 00:12:08;;;;;;;14.70;3.17;;;;;;;4.86;61.03;100671.94;4917124;28;96648;-87
2022/02/08 00:14:34;;;;;;;11.87;3.03;;;;;;;4.89;60.83;100684.97;4900369;28;97218;-88
2022/02/08 00:17:00;;;;;;;19.93;3.83;;;;;;;4.79;60.84;100673.72;4917053;28;101794;-87
2022/02/08 00:19:25;;;;;;;18.13;3.77;;;;;;;4.74;60.95;100678.97;4933496;28;101589;-88
2022/02/08 00:21:51;;;;;;;17.17;4.07;;;;;;;4.75;60.81;100674.63;4916786;28;97104;-88
2022/02/08 00:24:17;;;;;;;13.73;3.20;;;;;;;4.97;60.57;100684.06;4917231;28;97212;-88
2022/02/08 00:26:42;;;;;;;14.43;3.50;;;;;;;5.01;60.50;100697.91;4920739;28;98391;-88
2022/02/08 00:29:08;;;;;;;18.37;3.07;;;;;;;4.95;60.80;100692.75;4935883;28;97940;-88
2022/02/08 00:31:33;;;;;;;12.47;3.00;;;;;;;4.96;60.63;100697.94;4935657;28;97144;-88
2022/02/08 00:33:59;;;;;;;22.10;4.40;;;;;;;4.94;61.03;100697.06;4936333;28;96912;-88
2022/02/08 00:36:25;;;;;;;13.93;2.97;;;;;;;4.65;60.90;100639.97;4935267;28;101036;-88
2022/02/08 00:38:52;;;;;;;14.67;3.37;;;;;;;4.76;60.68;100668.53;4921957;28;100948;-88
2022/02/08 00:41:18;;;;;;;14.20;2.57;;;;;;;4.83;60.69;100680.66;4916656;28;96687;-88
2022/02/08 00:49:01;;;;;;;12.67;3.37;;;;;;;4.79;60.71;100675.47;4918666;28;102068;-88
2022/02/08 00:51:30;;;;;;;24.30;3.23;;;;;;;4.86;61.21;100704.06;4917121;28;96727;-88
2022/02/08 00:53:55;;;;;;;14.67;2.43;;;;;;;4.88;61.06;100707.50;4930998;28;97371;-88
2022/02/08 00:56:22;;;;;;;16.73;3.07;;;;;;;4.51;60.85;100644.41;4934721;28;101796;-92
2022/02/08 00:58:49;;;;;;;10.80;3.10;;;;;;;4.88;61.10;100709.25;4935384;28;101594;-88
2022/02/08 01:01:14;;;;;;;16.83;3.07;;;;;;;4.84;61.12;100713.59;4919684;28;96819;-87
2022/02/08 01:03:42;;;;;;;15.67;2.63;;;;;;;4.66;61.06;100703.28;4935382;28;97108;-87
2022/02/08 01:06:08;;;;;;;13.57;3.20;;;;;;;4.75;61.32;100711.03;4921135;28;101364;-87
2022/02/08 01:08:37;;;;;;;17.60;2.83;;;;;;;4.69;61.44;100705.88;4937114;28;101602;-88
2022/02/08 01:11:04;;;;;;;17.67;3.87;;;;;;;4.83;61.48;100730.09;4952660;28;97055;-87
2022/02/08 01:13:31;;;;;;;22.97;4.17;;;;;;;4.82;61.53;100733.53;4941916;28;96813;-88
2022/02/08 01:15:57;;;;;;;14.00;3.57;;;;;;;4.84;61.70;100742.22;4925445;28;100443;-88
2022/02/08 01:18:23;;;;;;;15.00;4.10;;;;;;;4.80;61.98;100743.09;4941943;28;98545;-89
2022/02/08 01:20:51;;;;;;;18.67;4.30;;;;;;;4.79;61.91;100749.16;4941111;28;96666;-90
2022/02/08 01:23:17;;;;;;;12.97;3.50;;;;;;;4.76;61.78;100739.63;4903503;28;97041;-87
2022/02/08 01:25:53;;;;;;;12.10;3.00;;;;;;;4.84;61.43;100749.16;4918214;28;100611;-87
2022/02/08 01:33:41;;;;;;;17.17;3.07;;;;;;;4.76;61.39;100759.56;4935658;28;96936;-88
2022/02/08 01:36:28;;;;;;;18.40;3.27;;;;;;;4.66;61.67;100748.34;4902833;28;101643;-87
2022/02/08 01:39:11;;;;;;;16.13;3.20;;;;;;;4.74;61.93;100779.50;4910369;28;101726;-88
2022/02/08 01:42:13;;;;;;;10.55;3.13;;;;;;;4.70;61.27;100781.25;4918569;28;96768;-88
2022/02/08 01:44:45;;;;;;;13.90;3.43;;;;;;;4.69;61.43;100778.69;4918702;28;96894;-87
2022/02/08 01:50:12;;;;;;;19.03;3.50;;;;;;;4.67;61.70;100786.47;4932443;28;100815;-88
2022/02/08 01:52:39;;;;;;;20.27;3.00;;;;;;;4.67;61.63;100793.41;4918854;28;96731;-88
2022/02/08 01:55:08;;;;;;;12.80;2.90;;;;;;;4.41;61.97;100746.66;4940695;28;97043;-89
2022/02/08 01:57:33;;;;;;;21.10;4.00;;;;;;;4.61;61.76;100794.28;4939205;28;101175;-87
2022/02/08 01:59:59;;;;;;;16.20;2.83;;;;;;;4.60;62.12;100795.19;4957490;28;98522;-88
2022/02/08 02:02:24;;;;;;;16.60;3.27;;;;;;;4.63;62.13;100794.31;4957977;28;96673;-91
2022/02/08 02:04:50;;;;;;;17.20;2.93;;;;;;;4.27;62.05;100749.28;4941900;28;96848;-88
2022/02/08 02:07:16;;;;;;;14.90;2.90;;;;;;;4.57;61.97;100789.09;4940400;28;100138;-88
2022/02/08 02:09:46;;;;;;;15.60;3.47;;;;;;;4.38;62.06;100764.88;4939673;28;100350;-88
2022/02/08 02:12:17;;;;;;;16.83;3.33;;;;;;;4.61;62.63;100806.44;4941181;28;96696;-89
2022/02/08 02:14:44;;;;;;;19.63;3.83;;;;;;;4.54;62.46;100801.25;4955765;28;96932;-88
2022/02/08 02:17:10;;;;;;;25.47;3.90;;;;;;;4.61;62.52;100814.25;4956722;28;100373;-88
2022/02/08 02:19:40;;;;;;;15.93;3.37;;;;;;;4.68;62.29;100802.94;4939473;28;100390;-88
2022/02/08 02:22:08;;;;;;;17.63;4.40;;;;;;;4.67;62.19;100814.22;4940103;28;96668;-88
2022/02/08 02:24:35;;;;;;;19.47;3.77;;;;;;;4.59;62.65;100803.81;4919487;28;96948;-89
2022/02/08 02:27:02;;;;;;;15.73;2.97;;;;;;;4.65;62.21;100821.16;4936143;28;101527;-89
2022/02/08 02:29:29;;;;;;;17.77;3.37;;;;;;;4.39;62.51;100790.00;4920053;28;100214;-94
2022/02/08 02:31:57;;;;;;;23.97;4.67;;;;;;;4.62;62.53;100827.22;4920929;28;96942;-88
2022/02/08 02:34:23;;;;;;;20.63;3.80;;;;;;;4.62;62.28;100831.56;4937891;28;97226;-88
2022/02/08 02:36:49;;;;;;;24.10;3.77;;;;;;;4.63;62.45;100831.56;4936452;28;99888;-88
2022/02/08 02:39:19;;;;;;;17.87;3.53;;;;;;;4.61;62.46;100838.50;4937227;28;100264;-88
2022/02/08 02:41:46;;;;;;;18.97;3.40;;;;;;;4.67;62.44;100848.03;4948708;28;97187;-89
2022/02/08 02:44:19;;;;;;;16.17;2.97;;;;;;;4.58;62.28;100843.72;4937069;28;96837;-88
2022/02/08 02:46:46;;;;;;;17.57;4.53;;;;;;;4.52;62.67;100835.91;4937848;28;101865;-88
2022/02/08 02:49:12;;;;;;;23.23;3.80;;;;;;;4.62;62.48;100858.44;4921086;28;100062;-87
2022/02/08 02:51:40;;;;;;;15.50;3.27;;;;;;;4.62;62.74;100854.97;4920943;28;96664;-88
2022/02/08 02:54:13;;;;;;;15.80;3.27;;;;;;;4.67;62.76;100866.22;4937431;28;96854;-87
2022/02/08 02:56:39;;;;;;;16.80;3.27;;;;;;;4.60;62.53;100854.97;4932756;28;100400;-88
2022/02/08 02:59:06;;;;;;;24.73;4.80;;;;;;;4.66;62.31;100867.97;4917302;28;100331;-88
2022/02/08 03:01:39;;;;;;;11.83;3.30;;;;;;;4.65;62.83;100871.41;4917112;28;96632;-88
2022/02/08 03:18:27;;;;;;;19.07;4.93;;;;;;;4.68;63.54;100886.16;4955336;28;102291;-88
2022/02/08 03:20:44;;;;;;;18.53;2.80;;;;;;;4.74;63.62;100886.16;4954904;28;101493;-86
2022/02/08 03:23:16;;;;;;;14.17;2.70;;;;;;;4.60;63.44;100872.31;4956198;28;96724;-87
2022/02/08 03:25:46;;;;;;;12.50;2.70;;;;;;;4.75;63.61;100900.91;4924030;28;96779;-87
2022/02/08 03:28:17;;;;;;;17.42;3.88;;;;;;;4.68;63.38;100897.47;4956347;28;101725;-87
2022/02/08 03:30:43;;;;;;;14.13;3.90;;;;;;;4.45;63.42;100862.78;4955701;28;101487;-87
2022/02/08 03:33:10;;;;;;;21.13;3.70;;;;;;;4.70;63.65;100908.69;4959816;28;96824;-87
2022/02/08 03:35:38;;;;;;;14.77;3.13;;;;;;;4.65;63.48;100893.97;4925215;28;96860;-87
2022/02/08 03:38:07;;;;;;;17.67;4.30;;;;;;;4.77;63.82;100914.78;4924441;28;101396;-88
2022/02/08 03:40:40;;;;;;;12.90;3.78;;;;;;;4.70;63.24;100911.31;4939980;28;100948;-88
2022/02/08 03:43:31;;;;;;;16.47;3.77;;;;;;;4.76;63.17;100921.69;4941248;28;96714;-88
2022/02/08 03:46:06;;;;;;;22.10;3.70;;;;;;;4.73;63.23;100916.50;4943672;28;97269;-88
2022/02/08 03:48:34;;;;;;;19.77;3.00;;;;;;;4.68;63.46;100907.88;4903539;28;100274;-89
2022/02/08 03:51:13;;;;;;;15.43;2.60;;;;;;;4.79;62.92;100932.97;4888903;28;101399;-88
2022/02/08 03:53:45;;;;;;;15.37;3.30;;;;;;;4.76;63.38;100926.91;4919521;28;96924;-88
2022/02/08 03:56:15;;;;;;;11.97;3.20;;;;;;;4.68;63.26;100923.47;4920622;28;96671;-87
2022/02/08 03:58:41;;;;;;;12.70;3.00;;;;;;;4.78;63.16;100937.31;4921231;28;101594;-88
2022/02/08 04:04:37;;;;;;;18.17;4.10;;;;;;;4.88;62.84;100943.38;4930221;28;96984;-87
2022/02/08 04:06:32;;;;;;;19.07;3.40;;;;;;;4.86;62.45;100945.09;4944132;28;96782;-88
2022/02/08 04:08:59;;;;;;;19.20;3.23;;;;;;;4.90;62.26;100945.13;4923784;28;97161;-88
2022/02/08 04:11:25;;;;;;;13.17;3.00;;;;;;;4.78;61.71;100937.31;4940926;28;97871;-87
2022/02/08 04:14:13;;;;;;;11.37;3.13;;;;;;;4.67;61.93;100931.25;4939884;28;97020;-89
2022/02/08 04:16:40;;;;;;;14.77;3.27;;;;;;;4.81;61.70;100955.53;4939755;28;96623;-87
2022/02/08 04:33:13;;;;;;;15.43;2.37;;;;;;;4.92;61.56;100966.81;4975437;28;97958;-87
2022/02/08 04:38:26;;;;;;;15.67;2.63;;;;;;;4.87;61.48;100960.72;4942066;28;97189;-87
2022/02/08 04:41:00;;;;;;;15.23;2.37;;;;;;;4.88;62.13;100972.00;4922477;28;97989;-88
2022/02/08 04:43:42;;;;;;;9.63;2.53;;;;;;;4.93;61.92;100971.13;4952145;28;97846;-88
2022/02/08 04:46:41;;;;;;;17.20;3.67;;;;;;;4.95;61.81;100973.75;4956060;28;96753;-87
2022/02/08 04:49:06;;;;;;;10.97;3.03;;;;;;;4.83;62.47;100959.00;4954618;28;98815;-87
2022/02/08 04:51:46;;;;;;;11.57;3.80;;;;;;;4.90;62.61;100973.72;4922806;28;97111;-89
2022/02/08 04:54:19;;;;;;;18.83;3.40;;;;;;;4.90;62.31;100967.66;4951373;28;98263;-87
2022/02/08 05:45:08;;;;;;;9.47;1.93;;;;;;;4.94;64.68;100979.78;4946178;28;97216;-87
2022/02/08 05:47:40;;;;;;;17.13;2.83;;;;;;;4.93;65.08;100983.28;4949208;28;96783;-90
2022/02/08 05:50:11;;;;;;;10.60;2.20;;;;;;;4.89;64.83;100976.34;4932518;28;96636;-87
2022/02/08 05:55:11;;;;;;;14.23;2.50;;;;;;;4.93;64.82;100983.28;4930931;28;98026;-88
2022/02/08 05:57:37;;;;;;;18.17;3.17;;;;;;;4.95;64.88;100974.59;4934938;28;97429;-88
2022/02/08 06:00:05;;;;;;;11.90;2.77;;;;;;;4.99;64.65;100984.13;4951152;28;96839;-87
2022/02/08 06:02:31;;;;;;;17.10;3.20;;;;;;;5.01;65.02;100971.13;4933900;28;96858;-88
2022/02/08 06:05:16;;;;;;;12.67;3.60;;;;;;;5.01;64.89;100978.06;4932339;28;100939;-86
2022/02/08 06:07:42;;;;;;;10.43;2.80;;;;;;;5.04;65.31;100984.13;4916921;28;101630;-87
2022/02/08 06:10:08;;;;;;;12.80;3.10;;;;;;;4.89;64.94;100950.34;4918413;28;97009;-87
2022/02/08 06:12:49;;;;;;;13.00;2.60;;;;;;;4.84;65.57;100949.47;4916885;28;96920;-88
2022/02/08 06:15:22;;;;;;;15.87;2.97;;;;;;;4.78;65.18;100939.94;4930876;28;101539;-87
2022/02/08 06:17:49;;;;;;;12.83;3.67;;;;;;;5.01;65.79;100980.69;4939775;28;102196;-87
2022/02/08 06:20:15;;;;;;;11.40;3.10;;;;;;;4.95;65.42;100977.19;4936823;28;96778;-87
2022/02/08 06:22:42;;;;;;;13.37;3.57;;;;;;;4.93;65.37;100957.25;4913764;28;97201;-87
2022/02/08 06:25:11;;;;;;;17.47;3.43;;;;;;;5.00;65.63;100971.97;4913875;28;98099;-88
2022/02/08 06:27:39;;;;;;;12.07;3.40;;;;;;;4.70;65.62;100926.91;4898169;28;100542;-88
2022/02/08 06:30:06;;;;;;;18.70;4.10;;;;;;;4.86;65.49;100961.59;4913693;28;96688;-87
2022/02/08 06:32:33;;;;;;;13.60;3.50;;;;;;;4.93;65.62;100967.66;4900830;28;97000;-87
2022/02/08 06:35:00;;;;;;;14.40;3.10;;;;;;;4.93;65.47;100965.91;4916593;28;98613;-87
2022/02/08 06:37:30;;;;;;;12.03;3.90;;;;;;;4.86;65.82;100961.59;4934744;28;101420;-90
2022/02/08 06:39:55;;;;;;;13.73;3.97;;;;;;;5.02;65.37;100972.00;4926167;28;96825;-88
2022/02/08 06:42:21;;;;;;;18.77;3.87;;;;;;;4.94;65.28;100943.38;4899890;28;97199;-88
2022/02/08 06:44:46;;;;;;;13.63;3.23;;;;;;;5.04;65.49;100963.31;4912964;28;101023;-88
2022/02/08 06:47:12;;;;;;;12.60;3.27;;;;;;;4.76;65.46;100902.63;4922857;28;98377;-87
2022/02/08 06:49:38;;;;;;;16.83;3.03;;;;;;;5.14;65.25;100961.56;4915279;28;96701;-88
2022/02/08 06:52:04;;;;;;;10.10;3.20;;;;;;;5.15;65.10;100960.72;4934674;28;96943;-89
2022/02/08 06:54:29;;;;;;;13.77;3.63;;;;;;;4.82;65.02;100887.00;4913205;28;100430;-88
2022/02/08 06:56:55;;;;;;;12.47;4.10;;;;;;;5.08;65.15;100936.41;4932020;28;101520;-88
2022/02/08 06:59:21;;;;;;;14.57;5.13;;;;;;;5.24;64.53;100947.69;4917646;28;97203;-88
2022/02/08 07:01:46;;;;;;;17.20;4.93;;;;;;;5.26;64.57;100952.88;4910944;28;96912;-88
2022/02/08 07:04:16;;;;;;;13.17;3.87;;;;;;;4.83;64.85;100872.25;4910595;28;100774;-87
2022/02/08 07:06:43;;;;;;;13.77;4.23;;;;;;;5.20;64.70;100943.31;4925844;28;101085;-87
2022/02/08 07:09:09;;;;;;;11.33;3.33;;;;;;;5.06;64.04;100899.13;4910550;28;96718;-87
2022/02/08 07:11:35;;;;;;;17.70;3.20;;;;;;;5.06;63.93;100887.84;4925513;28;96836;-88
2022/02/08 07:14:02;;;;;;;12.93;3.90;;;;;;;5.31;63.96;100945.91;4920018;28;101644;-88
2022/02/08 07:16:27;;;;;;;12.87;2.93;;;;;;;5.30;63.77;100942.44;4915437;28;100736;-87
2022/02/08 07:18:53;;;;;;;10.40;3.30;;;;;;;5.14;63.55;100917.31;4915816;28;97095;-86
2022/02/08 07:21:18;;;;;;;15.03;3.90;;;;;;;5.32;63.98;100935.47;4912087;28;97075;-88
2022/02/08 07:23:44;;;;;;;12.63;3.30;;;;;;;5.32;63.70;100945.03;4901095;28;98542;-87
2022/02/08 07:26:10;;;;;;;18.07;3.53;;;;;;;5.40;63.36;100949.34;4929416;28;100920;-87
2022/02/08 07:28:41;;;;;;;14.37;3.83;;;;;;;5.36;63.31;100937.22;4911455;28;96803;-92
2022/02/08 07:31:14;;;;;;;12.43;4.20;;;;;;;5.34;62.73;100943.31;4898120;28;97175;-87
2022/02/08 07:33:45;;;;;;;17.10;4.73;;;;;;;5.44;62.99;100955.44;4915369;28;101409;-88
2022/02/08 07:36:25;;;;;;;14.00;4.95;;;;;;;5.36;62.84;100933.75;4914554;28;101738;-87
2022/02/08 07:38:51;;;;;;;12.53;4.70;;;;;;;5.43;62.74;100951.94;4918129;28;96939;-88
2022/02/08 07:43:48;;;;;;;16.30;4.30;;;;;;;5.37;62.42;100936.34;4910620;28;101867;-89
2022/02/08 07:46:26;;;;;;;19.70;5.20;;;;;;;5.34;62.46;100925.06;4931105;28;101333;-87
2022/02/08 07:48:51;;;;;;;11.60;3.80;;;;;;;5.48;62.12;100944.13;4916301;28;97679;-87
2022/02/08 07:51:19;;;;;;;15.67;4.97;;;;;;;5.45;62.18;100938.94;4925416;28;97058;-87
2022/02/08 07:53:45;;;;;;;16.07;4.03;;;;;;;5.50;61.91;100942.41;4922116;28;101231;-90
2022/02/08 07:56:12;;;;;;;17.77;3.73;;;;;;;5.55;61.83;100940.63;4926936;28;98325;-90
2022/02/08 07:58:39;;;;;;;13.40;3.97;;;;;;;5.22;61.33;100884.31;4931038;28;96801;-87
2022/02/08 08:01:08;;;;;;;11.80;3.57;;;;;;;5.55;61.58;100927.59;4932595;28;96861;-87
2022/02/08 08:03:40;;;;;;;11.47;3.70;;;;;;;5.63;61.15;100909.34;4931604;28;98246;-87
2022/02/08 08:06:10;;;;;;;14.20;4.23;;;;;;;5.75;61.19;100924.06;4903608;28;101447;-88
2022/02/08 08:08:36;;;;;;;13.33;3.90;;;;;;;5.80;60.95;100909.28;4937298;28;96758;-87
2022/02/08 08:11:07;;;;;;;14.40;3.40;;;;;;;6.06;60.11;100903.94;4937577;28;97015;-86
2022/02/08 08:13:38;;;;;;;15.20;4.20;;;;;;;6.25;59.72;100915.97;4922095;28;98173;-87
2022/02/08 08:16:14;;;;;;;14.53;3.67;;;;;;;6.26;59.37;100927.28;4936541;28;101457;-86
2022/02/08 08:18:56;;;;;;;15.60;4.30;;;;;;;5.98;59.61;100880.53;4950405;28;97257;-87
2022/02/08 08:21:21;;;;;;;17.48;4.38;;;;;;;6.03;59.64;100902.22;4937073;28;96861;-87
2022/02/08 08:23:47;;;;;;;17.57;4.30;;;;;;;5.72;59.63;100841.56;4936739;28;100478;-87
2022/02/08 08:26:13;;;;;;;12.77;3.47;;;;;;;5.75;59.76;100849.38;4921438;28;101344;-87
2022/02/08 08:28:39;;;;;;;13.23;4.27;;;;;;;6.13;59.39;100918.66;4916868;28;97269;-88
2022/02/08 08:31:05;;;;;;;11.00;4.60;;;;;;;6.18;59.80;100910.81;4930903;28;97204;-86
2022/02/08 08:33:31;;;;;;;14.20;4.13;;;;;;;5.97;59.33;100890.97;4920851;28;101704;-87
2022/02/08 08:35:57;;;;;;;11.37;4.47;;;;;;;5.92;59.27;100874.47;4931712;28;101459;-88
2022/02/08 08:38:24;;;;;;;17.30;4.00;;;;;;;6.02;58.72;100910.03;4946195;28;96859;-89
2022/02/08 08:53:45;;;;;;;12.60;4.10;;;;;;;6.09;59.05;100910.00;4941325;28;98656;-90
2022/02/08 08:56:12;;;;;;;14.43;4.70;;;;;;;6.10;58.68;100910.84;4920343;28;98265;-88
2022/02/08 08:58:43;;;;;;;12.70;4.40;;;;;;;6.05;58.74;100897.88;4928446;28;97201;-88
2022/02/08 09:01:13;;;;;;;16.05;4.78;;;;;;;6.10;58.14;100909.13;4937900;28;97370;-88
2022/02/08 09:03:39;;;;;;;15.43;4.53;;;;;;;6.06;58.01;100896.13;4931448;28;100155;-92
2022/02/08 09:06:06;;;;;;;11.37;4.60;;;;;;;6.09;58.05;100903.94;4936248;28;101550;-93
2022/02/08 09:08:34;;;;;;;18.17;5.27;;;;;;;6.02;57.96;100891.78;4917936;28;97508;-87
2022/02/08 09:11:41;;;;;;;13.70;3.90;;;;;;;6.10;58.18;100905.66;4935682;28;99693;-87
2022/02/08 09:14:02;;;;;;;17.87;4.27;;;;;;;6.17;58.32;100909.06;4951680;28;98485;-85
2022/02/08 09:16:38;;;;;;;14.90;3.93;;;;;;;6.19;58.09;100896.91;4950072;28;97725;-82
2022/02/08 09:27:24;;;;;;;14.07;4.90;;;;;;;6.26;56.78;100904.69;4942200;28;100290;-84
2022/02/08 09:29:55;;;;;;;13.67;4.47;;;;;;;6.29;57.26;100889.00;4934633;28;98543;-85
2022/02/08 09:35:19;;;;;;;14.37;4.37;;;;;;;6.30;57.34;100889.88;4901492;28;98198;-84
2022/02/08 09:37:46;;;;;;;12.33;3.97;;;;;;;6.37;57.12;100891.56;4938967;28;98423;-92
2022/02/08 09:40:19;;;;;;;15.23;4.67;;;;;;;6.19;57.19;100861.25;4923853;28;97384;-91
2022/02/08 09:42:45;;;;;;;12.93;4.37;;;;;;;6.37;56.98;100878.53;4921000;28;97190;-92
2022/02/08 09:45:15;;;;;;;25.80;10.13;;;;;;;6.45;57.40;100889.75;4929780;28;98601;-92
2022/02/08 09:47:55;;;;;;;60.07;22.83;;;;;;;6.48;56.92;100887.09;4902029;28;101342;-92
2022/02/08 09:50:25;;;;;;;89.37;29.47;;;;;;;6.48;56.85;100881.88;4902471;28;97084;-92
2022/02/08 09:52:53;;;;;;;46.77;16.40;;;;;;;6.53;56.34;100877.50;4918390;28;96794;-93
2022/02/08 09:55:20;;;;;;;14.77;5.37;;;;;;;6.55;56.73;100869.69;4933643;28;100777;-92
2022/02/08 09:57:47;;;;;;;19.33;4.93;;;;;;;6.57;56.08;100862.69;4931889;28;98026;-91
2022/02/08 10:00:14;;;;;;;13.43;4.67;;;;;;;6.50;55.83;100834.94;4934568;28;97105;-91
2022/02/08 10:02:39;;;;;;;16.53;5.57;;;;;;;6.72;55.67;100853.84;4939177;28;96878;-91
2022/02/08 10:05:08;;;;;;;14.60;4.73;;;;;;;6.84;55.76;100848.53;4920187;28;100148;-85
2022/02/08 10:07:35;;;;;;;12.23;3.90;;;;;;;7.09;55.18;100850.88;4930682;28;101228;-85
2022/02/08 10:10:03;;;;;;;11.10;3.43;;;;;;;7.29;54.47;100850.63;4932127;28;96810;-85
2022/02/08 10:24:16;;;;;;;13.73;3.73;;;;;;;7.30;53.51;100821.03;4951251;28;96647;-88
2022/02/08 10:29:23;;;;;;;12.47;3.50;;;;;;;7.31;52.80;100791.44;4934398;28;101556;-90
2022/02/08 10:40:13;;;;;;;10.57;3.72;;;;;;;7.57;52.36;100814.59;4929920;28;101276;-91
2022/02/08 10:42:49;;;;;;;11.03;3.13;;;;;;;7.57;52.13;100799.78;4920263;28;97043;-91
2022/02/08 10:45:24;;;;;;;10.38;3.25;;;;;;;7.46;52.08;100783.38;4919582;28;97028;-91
2022/02/08 10:48:03;;;;;;;12.10;3.37;;;;;;;7.56;52.36;100774.50;4925735;28;101624;-90
2022/02/08 10:50:32;;;;;;;10.10;3.20;;;;;;;7.71;51.98;100787.38;4914120;28;98466;-91
2022/02/08 10:52:59;;;;;;;7.97;3.30;;;;;;;7.78;51.86;100756.78;4919510;28;97057;-89
2022/02/08 10:55:47;;;;;;;10.38;2.72;;;;;;;7.84;51.75;100766.28;4932787;28;97339;-91
2022/02/08 10:58:25;;;;;;;10.87;3.33;;;;;;;7.88;52.13;100762.72;4905874;28;101653;-93
2022/02/08 11:03:29;;;;;;;11.40;3.95;;;;;;;7.64;53.18;100751.75;4935513;28;97515;-93
2022/02/08 11:06:07;;;;;;;12.27;3.30;;;;;;;7.78;53.60;100763.75;4911456;28;96870;-93
2022/02/08 11:19:36;;;;;;;13.07;3.13;;;;;;;7.88;56.37;100768.81;4933412;28;101838;-95
2022/02/08 11:22:11;;;;;;;7.60;2.03;;;;;;;7.79;57.26;100729.75;4937414;28;101260;-96
2022/02/08 11:24:50;;;;;;;11.48;2.90;;;;;;;7.83;57.69;100726.22;4921716;28;96768;-96
2022/02/08 11:27:19;;;;;;;9.52;2.40;;;;;;;7.81;58.12;100732.34;4927550;28;96873;-87
2022/02/08 11:30:01;;;;;;;8.90;2.30;;;;;;;7.84;58.61;100724.44;4932396;28;100424;-86
2022/02/08 11:32:50;;;;;;;10.13;2.30;;;;;;;7.81;58.62;100725.34;4903859;28;101895;-87
2022/02/08 11:55:41;;;;;;;5.18;2.00;;;;;;;7.81;60.83;100730.59;4935580;28;101427;-86
2022/02/08 12:00:56;;;;;;;6.75;2.38;;;;;;;7.75;60.83;100730.69;4921124;28;96802;-87
2022/02/08 12:08:15;;;;;;;3.90;1.83;;;;;;;7.69;61.86;100733.41;4944485;28;96814;-86
2022/02/08 12:10:49;;;;;;;6.20;2.00;;;;;;;7.60;62.00;100705.66;4919242;28;97054;-87
2022/02/08 12:13:32;;;;;;;6.50;2.10;;;;;;;7.79;61.80;100734.09;4920953;28;100535;-87
2022/02/08 12:32:43;;;;;;;11.88;4.82;;;;;;;7.75;64.96;100727.22;4943233;28;97333;-95
2022/02/08 12:35:54;;;;;;;5.90;2.70;;;;;;;7.67;65.07;100729.94;4925195;28;101707;-95
2022/02/08 12:48:28;;;;;;;;;;;;;;;7.70;65.29;100727.28;4939931;28;97089;-92
2022/02/08 12:55:47;;;;;;;4.28;1.80;;;;;;;7.65;65.70;100709.06;4929475;28;96794;-83
2022/02/08 12:58:07;;;;;;;4.35;1.95;;;;;;;7.65;65.47;100695.13;4910121;28;101836;-83
2022/02/08 13:00:55;;;;;;;4.80;1.77;;;;;;;7.68;66.27;100697.72;4945155;28;101730;-83
2022/02/08 14:29:41;;;;;;;4.28;2.22;;;;;;;7.45;72.31;100651.06;4891009;28;97588;-87
2022/02/08 14:34:59;;;;;;;4.32;2.10;;;;;;;7.44;72.74;100636.25;4923451;28;101703;-86
2022/02/08 15:09:56;;;;;;;;;;;;;;;7.44;74.10;100644.09;4923104;28;97947;-88
2022/02/08 15:12:23;;;;;;;5.72;3.10;;;;;;;7.47;73.94;100638.81;4930568;28;97402;-86
2022/02/08 15:14:58;;;;;;;6.05;3.22;;;;;;;7.42;74.27;100620.63;4918838;28;97221;-86
2022/02/08 15:17:25;;;;;;;8.45;2.92;;;;;;;7.45;74.23;100625.78;4917501;28;101319;-86
2022/02/08 15:19:53;;;;;;;6.22;3.22;;;;;;;7.47;74.08;100629.22;4932867;28;97947;-87
2022/02/08 15:22:19;;;;;;;5.10;2.92;;;;;;;7.52;74.06;100646.59;4941427;28;97132;-86
2022/02/08 15:24:46;;;;;;;5.03;2.80;;;;;;;7.51;73.49;100627.44;4926013;28;96886;-86
2022/02/08 15:27:13;;;;;;;4.75;2.40;;;;;;;7.44;73.41;100620.56;4928581;28;98670;-86
2022/02/08 15:29:40;;;;;;;8.00;3.00;;;;;;;7.34;73.54;100613.78;4938346;28;100030;-89
2022/02/08 15:32:12;;;;;;;5.43;3.30;;;;;;;7.49;73.51;100632.69;4937102;28;97225;-86
2022/02/08 15:34:38;;;;;;;5.65;2.85;;;;;;;7.48;73.26;100632.72;4940123;28;97307;-85
2022/02/08 15:37:03;;;;;;;6.33;3.10;;;;;;;7.44;73.35;100623.19;4941749;28;101732;-86
2022/02/08 15:39:29;;;;;;;6.57;3.10;;;;;;;7.56;73.25;100645.63;4938340;28;101610;-89
2022/02/08 15:41:55;;;;;;;5.82;2.85;;;;;;;7.56;72.66;100630.81;4935615;28;96781;-88
2022/02/08 15:44:23;;;;;;;5.43;2.97;;;;;;;7.61;72.65;100651.66;4940577;28;97081;-87
2022/02/08 15:46:51;;;;;;;5.60;2.95;;;;;;;7.54;72.53;100637.84;4922678;28;101390;-86
2022/02/08 15:49:17;;;;;;;5.38;2.75;;;;;;;7.61;72.29;100652.50;4935070;28;101410;-86
2022/02/08 15:51:46;;;;;;;4.17;2.30;;;;;;;7.55;72.36;100651.75;4934465;28;97371;-88
2022/02/08 15:54:25;;;;;;;10.05;3.33;;;;;;;7.58;72.52;100649.94;4927561;28;96978;-87
2022/02/08 16:14:51;;;;;;;7.60;3.00;;;;;;;7.55;72.17;100642.16;4926668;28;97422;-86
2022/02/08 16:17:35;;;;;;;6.05;2.75;;;;;;;7.55;72.47;100642.16;4921938;28;98243;-89
2022/02/08 16:20:16;;;;;;;6.75;2.83;;;;;;;7.53;72.09;100643.94;4939656;28;100536;-88
2022/02/08 16:23:16;;;;;;;5.38;3.05;;;;;;;7.50;72.08;100633.53;4954010;28;97276;-89
2022/02/08 16:59:07;;;;;;;7.47;3.20;;;;;;;7.53;71.17;100617.81;4936105;28;102103;-86
2022/02/08 17:01:35;;;;;;;6.23;2.67;;;;;;;7.37;71.06;100587.63;4943560;28;101639;-87
2022/02/08 17:04:01;;;;;;;5.80;2.75;;;;;;;7.60;71.08;100632.50;4932532;28;96672;-87
2022/02/08 17:06:27;;;;;;;6.82;2.63;;;;;;;7.66;71.16;100636.78;4923212;28;97096;-87
2022/02/08 17:09:06;;;;;;;5.50;3.28;;;;;;;7.62;71.47;100638.56;4926698;28;101534;-87
2022/02/08 17:11:47;;;;;;;5.57;2.80;;;;;;;7.57;71.49;100624.72;4929834;28;101099;-86
2022/02/08 17:17:27;;;;;;;5.57;3.17;;;;;;;7.63;71.27;100648.13;4910204;28;97031;-87
2022/02/08 17:47:38;;;;;;;9.02;3.80;;;;;;;7.78;70.69;100687.97;4920253;28;97483;-89
2022/02/08 17:50:04;;;;;;;7.63;3.00;;;;;;;7.78;70.50;100688.81;4935737;28;97373;-90
2022/02/08 17:52:29;;;;;;;7.03;3.05;;;;;;;7.75;70.76;100683.66;4933995;28;99809;-88
2022/02/08 17:54:55;;;;;;;9.18;3.53;;;;;;;7.79;70.86;100684.44;4940314;28;101401;-88
2022/02/08 17:57:20;;;;;;;5.35;2.60;;;;;;;7.76;70.73;100693.19;4931560;28;97202;-89
2022/02/08 17:59:47;;;;;;;5.53;2.58;;;;;;;7.77;70.46;100691.47;4918502;28;97287;-88
2022/02/08 18:02:12;;;;;;;6.45;2.92;;;;;;;7.72;70.50;100681.09;4935699;28;97505;-90
2022/02/08 18:04:38;;;;;;;7.75;3.08;;;;;;;7.75;71.00;100680.19;4928459;28;100549;-88
2022/02/08 18:07:03;;;;;;;7.15;3.20;;;;;;;7.84;70.75;100690.47;4933873;28;96751;-88
2022/02/08 18:09:29;;;;;;;5.57;2.75;;;;;;;7.84;70.45;100687.84;4918939;28;96969;-88
2022/02/08 18:11:59;;;;;;;6.03;2.90;;;;;;;7.72;70.67;100670.63;4930778;28;101914;-89
2022/02/08 18:14:25;;;;;;;6.35;3.95;;;;;;;7.87;70.82;100696.50;4931155;28;101199;-87
2022/02/08 18:17:06;;;;;;;6.82;3.22;;;;;;;7.86;70.31;100686.09;4907867;28;97838;-88
2022/02/08 18:19:36;;;;;;;6.83;2.93;;;;;;;7.88;70.84;100685.19;4936085;28;97285;-88
2022/02/08 18:22:24;;;;;;;7.18;3.33;;;;;;;7.91;70.40;100697.31;4938591;28;100356;-88
2022/02/08 18:57:38;;;;;;;9.98;3.50;;;;;;;8.03;70.54;100743.28;4938300;28;100951;-87
2022/02/08 19:08:50;;;;;;;6.40;3.30;;;;;;;8.05;70.67;100742.38;4919289;28;97926;-89
2022/02/08 19:21:45;;;;;;;8.30;3.28;;;;;;;7.99;70.83;100765.16;4940168;28;97286;-89
2022/02/08 19:23:40;;;;;;;5.90;3.28;;;;;;;8.01;71.07;100779.06;4922866;28;98755;-88
2022/02/08 19:26:07;;;;;;;5.85;2.72;;;;;;;7.98;70.97;100771.28;4936516;28;100573;-89
2022/02/08 19:28:33;;;;;;;6.93;3.30;;;;;;;8.03;71.21;100785.13;4936044;28;101514;-89
2022/02/08 19:30:59;;;;;;;5.57;3.17;;;;;;;7.83;71.12;100739.28;4950882;28;96801;-84
2022/02/08 19:33:26;;;;;;;5.35;3.15;;;;;;;7.92;71.35;100762.66;4931185;28;96951;-89